»·PEaware :: N1MS KBUR-KLAS

N1MS :: KBUR-KLAS

FLIGHT INFORMATION

Flight Status: Arrived
Operator: Privately registered:
United States
More flights under this callsign
Pilot: Eugene T. (2654)
Aircraft: MOONEY M-20K/M ENCORE BRAVO
(M20T)
More flights by this aircraft type
Origin: KBUR Bob Hope-Burbank
United States
Destination: KLAS McCarran Intl
United States
More flights between these airports :: More routes between these airports
Route: +VNY2 DAG CRESO3
File this flight plan on PilotEdge
Remarks:
Altitude:
(Current/Filed)
19,000ft
Speed:
(Current/Filed)
200kts
Departed: 28-Sep-15 08:58 AM
Arrived: 28-Sep-15 10:15 AM
Distance/Time
Traveled:
193nm/1:17
Distance/Time
To Go:
Arrived

Flight Plot

Page will automatically refresh every two minutes.


Map Options




Map Legend


Flown Route
Filed Route
Departure Airport
Arrival Airport
Navaid (VOR, NDB)
Fix

Horizontal Profiles

Position Reports

Time Latitude Longitude Heading Altitude Ground
Speed
28-Sep-15 08:51 34.195871 -118.359988 327 781ft 0kts
28-Sep-15 08:52 34.195873 -118.359989 327 781ft 0kts
28-Sep-15 08:53 34.195875 -118.359991 327 781ft 0kts
28-Sep-15 08:54 34.195876 -118.359992 327 781ft 0kts
28-Sep-15 08:55 34.195876 -118.359992 327 781ft 0kts
28-Sep-15 08:56 34.195877 -118.359992 327 781ft 0kts
28-Sep-15 08:57 34.195877 -118.359992 327 781ft 0kts
28-Sep-15 08:58 34.195877 -118.359993 327 781ft 0kts
28-Sep-15 08:59 34.195877 -118.359993 327 781ft 0kts
28-Sep-15 09:00 34.195878 -118.359993 327 781ft 0kts
28-Sep-15 09:01 34.195878 -118.359993 327 781ft 0kts
28-Sep-15 09:02 34.195878 -118.359994 327 781ft 0kts
28-Sep-15 09:03 34.195879 -118.359994 327 781ft 0kts
28-Sep-15 09:04 34.195879 -118.359994 327 781ft 0kts
28-Sep-15 09:05 34.195879 -118.359994 327 781ft 0kts
28-Sep-15 09:06 34.196544 -118.360401 325 781ft 9kts
28-Sep-15 09:07 34.196733 -118.365813 270 781ft 17kts
28-Sep-15 09:08 34.197131 -118.368950 0 781ft 0kts
28-Sep-15 09:09 34.197132 -118.368950 0 781ft 0kts
28-Sep-15 09:10 34.197832 -118.367868 87 781ft 25kts
28-Sep-15 09:11 34.196777 -118.344284 110 1583ft 78kts
28-Sep-15 09:12 34.178874 -118.349443 223 2662ft 104kts
28-Sep-15 09:13 34.153414 -118.379037 223 3467ft 143kts
28-Sep-15 09:14 34.124129 -118.413059 223 4434ft 146kts
28-Sep-15 09:15 34.095583 -118.448558 249 5426ft 148kts
28-Sep-15 09:16 34.114290 -118.488350 310 6440ft 149kts
28-Sep-15 09:17 34.142053 -118.526574 318 7443ft 152kts
28-Sep-15 09:18 34.180591 -118.548423 336 8456ft 153kts
28-Sep-15 09:19 34.220287 -118.568835 336 9458ft 155kts
28-Sep-15 09:20 34.260687 -118.589617 336 10465ft 159kts
28-Sep-15 09:21 34.301546 -118.610647 336 11463ft 160kts
28-Sep-15 09:22 34.337640 -118.598260 57 12473ft 158kts
28-Sep-15 09:23 34.360716 -118.548286 64 13048ft 175kts
28-Sep-15 09:24 34.381764 -118.493941 64 13753ft 179kts
28-Sep-15 09:25 34.405155 -118.440755 51 14454ft 180kts
28-Sep-15 09:26 34.436744 -118.393533 53 15157ft 180kts
28-Sep-15 09:27 34.465645 -118.343903 54 15856ft 181kts
28-Sep-15 09:28 34.494925 -118.293394 54 16561ft 182kts
28-Sep-15 09:29 34.524275 -118.242746 54 17262ft 183kts
28-Sep-15 09:30 34.554124 -118.191217 54 17812ft 191kts
28-Sep-15 09:31 34.585059 -118.137792 54 18316ft 194kts
28-Sep-15 09:32 34.617428 -118.085435 51 18816ft 193kts
28-Sep-15 09:33 34.638335 -118.037760 81 19028ft 200kts
28-Sep-15 09:34 34.642257 -117.968375 84 19017ft 210kts
28-Sep-15 09:35 34.651033 -117.897535 82 19015ft 212kts
28-Sep-15 09:36 34.658864 -117.826133 81 19027ft 213kts
28-Sep-15 09:37 34.667723 -117.754758 76 19021ft 213kts
28-Sep-15 09:38 34.684327 -117.685308 73 19017ft 213kts
28-Sep-15 09:39 34.700960 -117.616208 73 19040ft 212kts
28-Sep-15 09:40 34.717981 -117.547147 72 19049ft 213kts
28-Sep-15 09:41 34.735641 -117.478082 72 19046ft 213kts
28-Sep-15 09:42 34.753520 -117.409006 72 19047ft 213kts
28-Sep-15 09:43 34.771113 -117.339846 72 19050ft 213kts
28-Sep-15 09:44 34.788408 -117.270469 73 19045ft 214kts
28-Sep-15 09:45 34.805660 -117.201295 72 19041ft 214kts
28-Sep-15 09:46 34.823186 -117.131895 72 19029ft 214kts
28-Sep-15 09:47 34.840752 -117.062529 72 19024ft 214kts
28-Sep-15 09:48 34.858224 -116.993046 72 19019ft 214kts
28-Sep-15 09:49 34.875669 -116.923544 72 19008ft 214kts
28-Sep-15 09:50 34.893111 -116.854242 72 18999ft 214kts
28-Sep-15 09:51 34.910587 -116.784720 72 18995ft 214kts
28-Sep-15 09:52 34.928029 -116.715288 72 18998ft 213kts
28-Sep-15 09:53 34.945457 -116.645893 72 19005ft 213kts
28-Sep-15 09:54 34.964320 -116.577074 64 19005ft 213kts
28-Sep-15 09:55 34.992543 -116.513380 60 19011ft 213kts
28-Sep-15 09:56 35.020965 -116.449610 63 19013ft 213kts
28-Sep-15 09:57 35.047216 -116.384386 63 19014ft 213kts
28-Sep-15 09:58 35.073407 -116.319077 63 19015ft 213kts
28-Sep-15 09:59 35.099599 -116.253744 63 19016ft 213kts
28-Sep-15 10:00 35.127004 -116.189475 61 19018ft 213kts
28-Sep-15 10:01 35.156674 -116.126339 59 19018ft 213kts
28-Sep-15 10:02 35.186536 -116.063293 60 19017ft 213kts
28-Sep-15 10:03 35.215593 -115.999700 60 19013ft 213kts
28-Sep-15 10:04 35.242411 -115.935241 63 19006ft 211kts
28-Sep-15 10:05 35.269029 -115.868711 63 18533ft 226kts
28-Sep-15 10:06 35.297289 -115.798027 63 17836ft 233kts
28-Sep-15 10:07 35.339379 -115.737811 42 17115ft 236kts
28-Sep-15 10:08 35.389018 -115.683101 41 16121ft 241kts
28-Sep-15 10:09 35.438822 -115.627631 46 15007ft 242kts
28-Sep-15 10:10 35.481520 -115.563976 51 13807ft 239kts
28-Sep-15 10:11 35.524031 -115.501620 48 12605ft 236kts
28-Sep-15 10:12 35.568911 -115.443167 45 11403ft 233kts
28-Sep-15 10:13 35.613756 -115.386198 46 10229ft 230kts
28-Sep-15 10:14 35.654377 -115.330992 48 10021ft 206kts
28-Sep-15 10:15 35.691460 -115.278681 48 10023ft 200kts
28-Sep-15 10:16 35.728674 -115.227686 47 10024ft 199kts
28-Sep-15 10:17 35.766321 -115.177237 47 9999ft 201kts
28-Sep-15 10:18 35.816863 -115.141219 14 8890ft 223kts
28-Sep-15 10:19 35.876646 -115.122740 13 8053ft 211kts
28-Sep-15 10:20 35.931141 -115.106064 13 8030ft 195kts
28-Sep-15 10:21 35.983696 -115.089976 13 8024ft 188kts
28-Sep-15 10:22 36.033054 -115.074854 13 7550ft 190kts
28-Sep-15 10:23 36.086578 -115.059825 5 6355ft 199kts
28-Sep-15 10:24 36.136489 -115.065732 328 4953ft 159kts
28-Sep-15 10:25 36.147330 -115.109112 269 3458ft 128kts
28-Sep-15 10:26 36.130458 -115.137605 197 3065ft 107kts
28-Sep-15 10:27 36.104294 -115.153518 206 2356ft 101kts
28-Sep-15 10:28 36.089220 -115.162607 275 2184ft 12kts
28-Sep-15 10:29 36.089302 -115.164760 197 2184ft 17kts
28-Sep-15 10:30 36.083551 -115.167955 204 2184ft 25kts
28-Sep-15 10:31 36.080520 -115.171593 277 2184ft 6kts

Navigation Log

Ident Type
Flight plan parsing failed, navigation log unavailable